Aérodrome :
LOGIN :

S'inscrire | Disclaimer

   EN    FR    IT 

 










Légende :    VFR   VFR Marginal   IFR   IFR Intensif   IFR Très Intensif
Visi : 
Plafond : 
>= 8 km
>= 3000ft
5 à 8 km
1000 à 3000 ft
1500m à 5 km
500 à 1000 ft
800 à 1500m
200 à 500 ft
< 800m
< 200 ft
Symboles :   Orages  Brouillard  Fortes neiges  Fortes précipitations  Vent > 20 kt
SIGMETs :   Divers  Orages  Givrage  Turbulence  Onde Orograph.  Cendres Volcan.







- Altitude de l'aérodrome : 28 ft
- Code IATA : SOZ
- Voir les cartes d'approche


LFKS - Solenzara

DERNIER METAR :
  • 280300Z AUTO 28004KT 190V310 9999 NCD 07/04 Q1012

METARs EXPIRÉS :
  • 280230Z AUTO 27004KT 9999 NCD 07/03 Q1012
  • 280200Z AUTO 27005KT 250V310 9999 NCD 07/04 Q1012
  • 280130Z AUTO 27005KT 9999 NCD 07/04 Q1013
  • 280100Z AUTO 28005KT 9999 NCD 08/05 Q1013
  • 280030Z AUTO 29004KT 9999 NCD 07/05 Q1014

TAF TAF LFKS
Valide du 28 à 03h jusqu'au 01 à 03h UTC


280200Z 2803/0103 28005KT CAVOK
BECMG 2810/2812 25015G25KT
TEMPO 2813/2818 25020G35KT
Pas de NOTAMs connus pour ce terrain.
2 SIGMETs publiés pour la FIR Marseille (LFMM) :
 
Turbulence forte
LFMM SIGMET 9 VALID 280000/280400 LFPW
LFMM MARSEILLE FIR/UIR SEV TURB FCST N OF N4415 AND E OF E00515 SFC/FL120 STNR NC=
Orages noyés dans la masse
LFMM SIGMET 1 VALID 280200/280600 LFPW
LFMM MARSEILLE FIR/UIR EMBD TS FCST WI N4630 E00600 - N4630 E00700 - N4515 E00700 - N4515 E00500 TOP FL300 STNR NC=



MET'MAP, la Météo Aéronautique d'un coup d'oeil ! - Copyright ORBIFLY Décembre 2007 - Disclaimer

ORBIFLY MET'MAP TEAM :

Programmation & Développement : Alexandra Zaïnal
Conception & Développement : Baudouin d'Aumeries
Co-Programmation & Développement : Marc-Olivier Méhu
Soutien technique & logistique : Manuel Goepfert

Contact : metmap@orbifly.com




SOURCES & CREDITS :

   NOAA